sensor_id;sensor_type;location;lat;lon;timestamp;P1;durP1;ratioP1;P2;durP2;ratioP2
19358;SDS011;9815;52.334;20.890;2023-05-07T00:01:55;11.10;;;6.47;;
19358;SDS011;9815;52.334;20.890;2023-05-07T00:04:23;11.70;;;6.27;;
19358;SDS011;9815;52.334;20.890;2023-05-07T00:06:53;12.57;;;6.57;;
19358;SDS011;9815;52.334;20.890;2023-05-07T00:09:21;11.63;;;6.97;;
19358;SDS011;9815;52.334;20.890;2023-05-07T00:11:49;10.67;;;6.53;;
19358;SDS011;9815;52.334;20.890;2023-05-07T00:14:18;8.77;;;5.50;;
19358;SDS011;9815;52.334;20.890;2023-05-07T00:16:47;9.87;;;6.10;;
19358;SDS011;9815;52.334;20.890;2023-05-07T00:19:15;9.77;;;6.13;;
19358;SDS011;9815;52.334;20.890;2023-05-07T00:21:43;8.80;;;5.40;;
19358;SDS011;9815;52.334;20.890;2023-05-07T00:24:12;11.77;;;6.07;;
19358;SDS011;9815;52.334;20.890;2023-05-07T00:26:40;10.70;;;6.20;;
19358;SDS011;9815;52.334;20.890;2023-05-07T00:29:09;10.40;;;6.20;;
19358;SDS011;9815;52.334;20.890;2023-05-07T00:31:37;11.57;;;5.87;;
19358;SDS011;9815;52.334;20.890;2023-05-07T00:34:05;9.70;;;5.50;;
19358;SDS011;9815;52.334;20.890;2023-05-07T00:36:33;11.50;;;6.17;;
19358;SDS011;9815;52.334;20.890;2023-05-07T00:39:01;10.83;;;6.07;;
19358;SDS011;9815;52.334;20.890;2023-05-07T00:41:31;9.27;;;5.40;;
19358;SDS011;9815;52.334;20.890;2023-05-07T00:43:59;10.27;;;5.60;;
19358;SDS011;9815;52.334;20.890;2023-05-07T00:46:27;11.13;;;6.17;;
19358;SDS011;9815;52.334;20.890;2023-05-07T00:48:58;11.93;;;6.27;;
19358;SDS011;9815;52.334;20.890;2023-05-07T00:51:27;11.50;;;5.90;;
19358;SDS011;9815;52.334;20.890;2023-05-07T00:53:55;10.53;;;5.40;;
19358;SDS011;9815;52.334;20.890;2023-05-07T00:56:24;9.23;;;5.47;;
19358;SDS011;9815;52.334;20.890;2023-05-07T00:58:53;10.50;;;5.33;;
19358;SDS011;9815;52.334;20.890;2023-05-07T01:01:22;10.87;;;6.03;;
19358;SDS011;9815;52.334;20.890;2023-05-07T01:03:50;11.10;;;6.10;;
19358;SDS011;9815;52.334;20.890;2023-05-07T01:06:19;11.33;;;5.97;;
19358;SDS011;9815;52.334;20.890;2023-05-07T01:08:49;9.63;;;5.60;;
19358;SDS011;9815;52.334;20.890;2023-05-07T01:11:19;8.63;;;5.23;;
19358;SDS011;9815;52.334;20.890;2023-05-07T01:13:47;11.13;;;6.37;;
19358;SDS011;9815;52.334;20.890;2023-05-07T01:16:18;16.10;;;6.13;;
19358;SDS011;9815;52.334;20.890;2023-05-07T01:18:47;9.03;;;5.30;;
19358;SDS011;9815;52.334;20.890;2023-05-07T01:21:15;14.10;;;5.43;;
19358;SDS011;9815;52.334;20.890;2023-05-07T01:23:46;9.70;;;6.07;;
19358;SDS011;9815;52.334;20.890;2023-05-07T01:26:15;9.10;;;5.63;;
19358;SDS011;9815;52.334;20.890;2023-05-07T01:28:45;10.30;;;6.17;;
19358;SDS011;9815;52.334;20.890;2023-05-07T01:31:14;9.47;;;5.43;;
19358;SDS011;9815;52.334;20.890;2023-05-07T01:33:43;8.73;;;5.73;;
19358;SDS011;9815;52.334;20.890;2023-05-07T01:36:13;9.60;;;5.27;;
19358;SDS011;9815;52.334;20.890;2023-05-07T01:38:42;9.17;;;5.27;;
19358;SDS011;9815;52.334;20.890;2023-05-07T01:41:13;9.03;;;5.03;;
19358;SDS011;9815;52.334;20.890;2023-05-07T01:43:42;8.70;;;4.57;;
19358;SDS011;9815;52.334;20.890;2023-05-07T01:46:10;11.43;;;5.23;;
19358;SDS011;9815;52.334;20.890;2023-05-07T01:48:38;10.77;;;5.50;;
19358;SDS011;9815;52.334;20.890;2023-05-07T01:51:07;11.20;;;5.50;;
19358;SDS011;9815;52.334;20.890;2023-05-07T01:53:36;9.07;;;5.43;;
19358;SDS011;9815;52.334;20.890;2023-05-07T01:56:05;11.17;;;4.70;;
19358;SDS011;9815;52.334;20.890;2023-05-07T01:58:37;9.60;;;4.90;;
19358;SDS011;9815;52.334;20.890;2023-05-07T02:01:07;8.00;;;5.07;;
19358;SDS011;9815;52.334;20.890;2023-05-07T02:03:35;7.47;;;4.73;;
19358;SDS011;9815;52.334;20.890;2023-05-07T02:06:10;10.40;;;4.30;;
19358;SDS011;9815;52.334;20.890;2023-05-07T02:08:39;7.80;;;4.73;;
19358;SDS011;9815;52.334;20.890;2023-05-07T02:11:07;6.30;;;4.23;;
19358;SDS011;9815;52.334;20.890;2023-05-07T02:13:37;10.30;;;4.93;;
19358;SDS011;9815;52.334;20.890;2023-05-07T02:16:05;9.33;;;5.30;;
19358;SDS011;9815;52.334;20.890;2023-05-07T02:18:34;6.80;;;4.53;;
19358;SDS011;9815;52.334;20.890;2023-05-07T02:21:02;10.83;;;4.80;;
19358;SDS011;9815;52.334;20.890;2023-05-07T02:23:31;8.97;;;4.70;;
19358;SDS011;9815;52.334;20.890;2023-05-07T02:26:00;7.60;;;4.80;;
19358;SDS011;9815;52.334;20.890;2023-05-07T02:28:28;6.40;;;4.73;;
19358;SDS011;9815;52.334;20.890;2023-05-07T02:31:00;7.63;;;5.00;;
19358;SDS011;9815;52.334;20.890;2023-05-07T02:33:30;8.13;;;4.93;;
19358;SDS011;9815;52.334;20.890;2023-05-07T02:36:05;6.83;;;4.33;;
19358;SDS011;9815;52.334;20.890;2023-05-07T02:38:36;8.67;;;4.70;;
19358;SDS011;9815;52.334;20.890;2023-05-07T02:41:04;6.50;;;4.63;;
19358;SDS011;9815;52.334;20.890;2023-05-07T02:43:33;7.90;;;4.37;;
19358;SDS011;9815;52.334;20.890;2023-05-07T02:46:03;7.67;;;4.80;;
19358;SDS011;9815;52.334;20.890;2023-05-07T02:48:34;9.03;;;4.60;;
19358;SDS011;9815;52.334;20.890;2023-05-07T02:51:02;6.47;;;4.20;;
19358;SDS011;9815;52.334;20.890;2023-05-07T02:53:34;8.77;;;4.30;;
19358;SDS011;9815;52.334;20.890;2023-05-07T02:56:02;7.10;;;4.47;;
19358;SDS011;9815;52.334;20.890;2023-05-07T02:58:30;7.90;;;4.93;;
19358;SDS011;9815;52.334;20.890;2023-05-07T03:01:00;10.70;;;4.70;;
19358;SDS011;9815;52.334;20.890;2023-05-07T03:03:40;7.43;;;4.60;;
19358;SDS011;9815;52.334;20.890;2023-05-07T03:06:08;7.33;;;4.07;;
19358;SDS011;9815;52.334;20.890;2023-05-07T03:08:36;9.07;;;4.53;;
19358;SDS011;9815;52.334;20.890;2023-05-07T03:11:04;6.00;;;4.30;;
19358;SDS011;9815;52.334;20.890;2023-05-07T03:13:33;7.67;;;4.60;;
19358;SDS011;9815;52.334;20.890;2023-05-07T03:16:01;7.53;;;4.90;;
19358;SDS011;9815;52.334;20.890;2023-05-07T03:18:29;6.93;;;4.47;;
19358;SDS011;9815;52.334;20.890;2023-05-07T03:20:58;8.23;;;4.37;;
19358;SDS011;9815;52.334;20.890;2023-05-07T03:23:27;9.53;;;4.70;;
19358;SDS011;9815;52.334;20.890;2023-05-07T03:25:55;10.83;;;4.80;;
19358;SDS011;9815;52.334;20.890;2023-05-07T03:28:23;8.40;;;4.90;;
19358;SDS011;9815;52.334;20.890;2023-05-07T03:30:56;7.53;;;4.60;;
19358;SDS011;9815;52.334;20.890;2023-05-07T03:33:24;6.87;;;4.60;;
19358;SDS011;9815;52.334;20.890;2023-05-07T03:35:54;6.17;;;4.30;;
19358;SDS011;9815;52.334;20.890;2023-05-07T03:38:25;8.17;;;4.43;;
19358;SDS011;9815;52.334;20.890;2023-05-07T03:40:53;8.77;;;4.60;;
19358;SDS011;9815;52.334;20.890;2023-05-07T03:43:22;9.17;;;4.90;;
19358;SDS011;9815;52.334;20.890;2023-05-07T03:45:58;8.73;;;4.77;;
19358;SDS011;9815;52.334;20.890;2023-05-07T03:48:27;8.20;;;4.40;;
19358;SDS011;9815;52.334;20.890;2023-05-07T03:50:57;7.50;;;4.83;;
19358;SDS011;9815;52.334;20.890;2023-05-07T03:53:32;7.00;;;4.10;;
19358;SDS011;9815;52.334;20.890;2023-05-07T03:56:00;7.73;;;4.03;;
19358;SDS011;9815;52.334;20.890;2023-05-07T03:58:32;6.60;;;4.03;;
19358;SDS011;9815;52.334;20.890;2023-05-07T04:01:06;9.37;;;4.20;;
19358;SDS011;9815;52.334;20.890;2023-05-07T04:03:35;7.87;;;5.20;;
19358;SDS011;9815;52.334;20.890;2023-05-07T04:06:03;7.53;;;4.10;;
19358;SDS011;9815;52.334;20.890;2023-05-07T04:08:35;7.77;;;4.47;;
19358;SDS011;9815;52.334;20.890;2023-05-07T04:11:04;7.40;;;4.53;;
19358;SDS011;9815;52.334;20.890;2023-05-07T04:13:35;7.70;;;4.63;;
19358;SDS011;9815;52.334;20.890;2023-05-07T04:16:05;10.77;;;5.23;;
19358;SDS011;9815;52.334;20.890;2023-05-07T04:18:35;8.97;;;5.57;;
19358;SDS011;9815;52.334;20.890;2023-05-07T04:21:04;7.83;;;5.07;;
19358;SDS011;9815;52.334;20.890;2023-05-07T04:23:36;10.50;;;5.53;;
19358;SDS011;9815;52.334;20.890;2023-05-07T04:26:08;7.20;;;4.63;;
19358;SDS011;9815;52.334;20.890;2023-05-07T04:28:40;8.87;;;4.73;;
19358;SDS011;9815;52.334;20.890;2023-05-07T04:31:09;7.33;;;4.50;;
19358;SDS011;9815;52.334;20.890;2023-05-07T04:33:38;7.40;;;3.77;;
19358;SDS011;9815;52.334;20.890;2023-05-07T04:36:09;6.90;;;4.33;;
19358;SDS011;9815;52.334;20.890;2023-05-07T04:38:54;5.47;;;3.83;;
19358;SDS011;9815;52.334;20.890;2023-05-07T04:41:22;10.07;;;4.40;;
19358;SDS011;9815;52.334;20.890;2023-05-07T04:43:50;7.20;;;4.90;;
19358;SDS011;9815;52.334;20.890;2023-05-07T04:46:21;6.00;;;4.47;;
19358;SDS011;9815;52.334;20.890;2023-05-07T04:48:51;6.50;;;4.07;;
19358;SDS011;9815;52.334;20.890;2023-05-07T04:51:19;6.17;;;4.10;;
19358;SDS011;9815;52.334;20.890;2023-05-07T04:53:48;5.23;;;4.00;;
19358;SDS011;9815;52.334;20.890;2023-05-07T04:56:18;6.77;;;4.10;;
19358;SDS011;9815;52.334;20.890;2023-05-07T04:58:46;6.87;;;4.63;;
19358;SDS011;9815;52.334;20.890;2023-05-07T05:01:18;5.57;;;4.10;;
19358;SDS011;9815;52.334;20.890;2023-05-07T05:03:46;5.80;;;3.97;;
19358;SDS011;9815;52.334;20.890;2023-05-07T05:06:15;6.00;;;4.10;;
19358;SDS011;9815;52.334;20.890;2023-05-07T05:08:43;7.30;;;4.57;;
19358;SDS011;9815;52.334;20.890;2023-05-07T05:11:11;6.33;;;4.30;;
19358;SDS011;9815;52.334;20.890;2023-05-07T05:13:41;6.37;;;4.30;;
19358;SDS011;9815;52.334;20.890;2023-05-07T05:16:14;7.83;;;4.60;;
19358;SDS011;9815;52.334;20.890;2023-05-07T05:18:43;7.90;;;4.30;;
19358;SDS011;9815;52.334;20.890;2023-05-07T05:21:14;5.90;;;4.10;;
19358;SDS011;9815;52.334;20.890;2023-05-07T05:23:45;5.80;;;3.83;;
19358;SDS011;9815;52.334;20.890;2023-05-07T05:26:16;6.07;;;4.17;;
19358;SDS011;9815;52.334;20.890;2023-05-07T05:28:46;5.97;;;3.93;;
19358;SDS011;9815;52.334;20.890;2023-05-07T05:31:16;6.80;;;4.17;;
19358;SDS011;9815;52.334;20.890;2023-05-07T05:33:45;5.40;;;4.10;;
19358;SDS011;9815;52.334;20.890;2023-05-07T05:36:13;7.63;;;4.50;;
19358;SDS011;9815;52.334;20.890;2023-05-07T05:38:42;7.37;;;3.60;;
19358;SDS011;9815;52.334;20.890;2023-05-07T05:41:12;7.30;;;4.20;;
19358;SDS011;9815;52.334;20.890;2023-05-07T05:43:40;5.17;;;3.83;;
19358;SDS011;9815;52.334;20.890;2023-05-07T05:46:11;5.90;;;4.10;;
19358;SDS011;9815;52.334;20.890;2023-05-07T05:48:39;7.03;;;3.93;;
19358;SDS011;9815;52.334;20.890;2023-05-07T05:51:09;5.93;;;4.17;;
19358;SDS011;9815;52.334;20.890;2023-05-07T05:53:37;7.50;;;4.10;;
19358;SDS011;9815;52.334;20.890;2023-05-07T05:56:05;6.43;;;3.73;;
19358;SDS011;9815;52.334;20.890;2023-05-07T05:58:35;7.33;;;3.97;;
19358;SDS011;9815;52.334;20.890;2023-05-07T06:01:05;4.40;;;3.63;;
19358;SDS011;9815;52.334;20.890;2023-05-07T06:03:37;7.50;;;3.60;;
19358;SDS011;9815;52.334;20.890;2023-05-07T06:06:11;6.03;;;3.70;;
19358;SDS011;9815;52.334;20.890;2023-05-07T06:08:41;7.27;;;3.77;;
19358;SDS011;9815;52.334;20.890;2023-05-07T06:11:13;5.00;;;3.60;;
19358;SDS011;9815;52.334;20.890;2023-05-07T06:13:44;4.53;;;3.57;;
19358;SDS011;9815;52.334;20.890;2023-05-07T06:16:13;6.53;;;4.00;;
19358;SDS011;9815;52.334;20.890;2023-05-07T06:18:44;5.43;;;3.53;;
19358;SDS011;9815;52.334;20.890;2023-05-07T06:21:14;5.27;;;3.70;;
19358;SDS011;9815;52.334;20.890;2023-05-07T06:23:42;5.50;;;3.80;;
19358;SDS011;9815;52.334;20.890;2023-05-07T06:26:10;4.70;;;3.33;;
19358;SDS011;9815;52.334;20.890;2023-05-07T06:28:43;5.73;;;3.87;;
19358;SDS011;9815;52.334;20.890;2023-05-07T06:31:13;6.57;;;3.80;;
19358;SDS011;9815;52.334;20.890;2023-05-07T06:33:49;5.60;;;3.80;;
19358;SDS011;9815;52.334;20.890;2023-05-07T06:36:17;7.67;;;3.83;;
19358;SDS011;9815;52.334;20.890;2023-05-07T06:38:48;5.50;;;3.67;;
19358;SDS011;9815;52.334;20.890;2023-05-07T06:41:16;4.80;;;3.50;;
19358;SDS011;9815;52.334;20.890;2023-05-07T06:43:44;6.40;;;4.00;;
19358;SDS011;9815;52.334;20.890;2023-05-07T06:46:27;5.67;;;3.63;;
19358;SDS011;9815;52.334;20.890;2023-05-07T06:48:56;5.97;;;4.20;;
19358;SDS011;9815;52.334;20.890;2023-05-07T06:51:26;10.57;;;3.93;;
19358;SDS011;9815;52.334;20.890;2023-05-07T06:53:57;6.90;;;3.40;;
19358;SDS011;9815;52.334;20.890;2023-05-07T06:56:25;7.37;;;3.53;;
19358;SDS011;9815;52.334;20.890;2023-05-07T06:58:53;6.27;;;3.70;;
19358;SDS011;9815;52.334;20.890;2023-05-07T07:01:22;4.47;;;3.47;;
19358;SDS011;9815;52.334;20.890;2023-05-07T07:03:50;4.80;;;3.87;;
19358;SDS011;9815;52.334;20.890;2023-05-07T07:06:21;4.50;;;3.33;;
19358;SDS011;9815;52.334;20.890;2023-05-07T07:08:49;4.00;;;3.00;;
19358;SDS011;9815;52.334;20.890;2023-05-07T07:11:17;4.27;;;3.10;;
19358;SDS011;9815;52.334;20.890;2023-05-07T07:13:45;5.50;;;3.30;;
19358;SDS011;9815;52.334;20.890;2023-05-07T07:16:14;4.07;;;3.13;;
19358;SDS011;9815;52.334;20.890;2023-05-07T07:18:44;4.97;;;3.20;;
19358;SDS011;9815;52.334;20.890;2023-05-07T07:21:13;5.27;;;2.97;;
19358;SDS011;9815;52.334;20.890;2023-05-07T07:23:43;4.67;;;3.27;;
19358;SDS011;9815;52.334;20.890;2023-05-07T07:26:11;5.10;;;3.70;;
19358;SDS011;9815;52.334;20.890;2023-05-07T07:28:42;4.47;;;3.57;;
19358;SDS011;9815;52.334;20.890;2023-05-07T07:31:13;7.07;;;3.07;;
19358;SDS011;9815;52.334;20.890;2023-05-07T07:33:42;3.80;;;3.07;;
19358;SDS011;9815;52.334;20.890;2023-05-07T07:36:10;4.50;;;3.10;;
19358;SDS011;9815;52.334;20.890;2023-05-07T07:38:40;4.70;;;3.50;;
19358;SDS011;9815;52.334;20.890;2023-05-07T07:41:09;4.13;;;3.10;;
19358;SDS011;9815;52.334;20.890;2023-05-07T07:43:37;6.00;;;3.10;;
19358;SDS011;9815;52.334;20.890;2023-05-07T07:46:05;3.87;;;3.13;;
19358;SDS011;9815;52.334;20.890;2023-05-07T07:48:33;5.03;;;3.00;;
19358;SDS011;9815;52.334;20.890;2023-05-07T07:51:01;3.93;;;3.10;;
19358;SDS011;9815;52.334;20.890;2023-05-07T07:53:30;4.27;;;2.83;;
19358;SDS011;9815;52.334;20.890;2023-05-07T07:55:59;4.77;;;3.07;;
19358;SDS011;9815;52.334;20.890;2023-05-07T07:58:34;4.97;;;2.90;;
19358;SDS011;9815;52.334;20.890;2023-05-07T08:01:04;4.43;;;3.20;;
19358;SDS011;9815;52.334;20.890;2023-05-07T08:03:32;3.50;;;2.80;;
19358;SDS011;9815;52.334;20.890;2023-05-07T08:06:02;4.27;;;3.33;;
19358;SDS011;9815;52.334;20.890;2023-05-07T08:08:32;3.73;;;2.90;;
19358;SDS011;9815;52.334;20.890;2023-05-07T08:11:00;4.57;;;3.50;;
19358;SDS011;9815;52.334;20.890;2023-05-07T08:13:31;8.70;;;3.17;;
19358;SDS011;9815;52.334;20.890;2023-05-07T08:16:01;6.70;;;3.20;;
19358;SDS011;9815;52.334;20.890;2023-05-07T08:18:30;4.23;;;2.80;;
19358;SDS011;9815;52.334;20.890;2023-05-07T08:21:01;11.33;;;2.57;;
19358;SDS011;9815;52.334;20.890;2023-05-07T08:23:30;3.97;;;2.70;;
19358;SDS011;9815;52.334;20.890;2023-05-07T08:25:59;4.83;;;3.10;;
19358;SDS011;9815;52.334;20.890;2023-05-07T08:28:28;5.67;;;3.30;;
19358;SDS011;9815;52.334;20.890;2023-05-07T08:30:58;6.50;;;3.57;;
19358;SDS011;9815;52.334;20.890;2023-05-07T08:33:31;3.43;;;2.60;;
19358;SDS011;9815;52.334;20.890;2023-05-07T08:35:59;3.93;;;2.60;;
19358;SDS011;9815;52.334;20.890;2023-05-07T08:38:27;3.50;;;2.10;;
19358;SDS011;9815;52.334;20.890;2023-05-07T08:40:55;3.20;;;2.47;;
19358;SDS011;9815;52.334;20.890;2023-05-07T08:43:25;4.47;;;2.43;;
19358;SDS011;9815;52.334;20.890;2023-05-07T08:45:54;3.33;;;2.53;;
19358;SDS011;9815;52.334;20.890;2023-05-07T08:48:29;2.93;;;2.50;;
19358;SDS011;9815;52.334;20.890;2023-05-07T08:51:05;2.57;;;2.10;;
19358;SDS011;9815;52.334;20.890;2023-05-07T08:53:34;5.20;;;2.60;;
19358;SDS011;9815;52.334;20.890;2023-05-07T08:56:04;5.07;;;2.50;;
19358;SDS011;9815;52.334;20.890;2023-05-07T08:58:33;3.93;;;2.40;;
19358;SDS011;9815;52.334;20.890;2023-05-07T09:01:05;4.00;;;2.60;;
19358;SDS011;9815;52.334;20.890;2023-05-07T09:03:38;3.47;;;2.30;;
19358;SDS011;9815;52.334;20.890;2023-05-07T09:06:09;3.50;;;2.20;;
19358;SDS011;9815;52.334;20.890;2023-05-07T09:08:37;3.70;;;2.47;;
19358;SDS011;9815;52.334;20.890;2023-05-07T09:11:06;4.50;;;2.70;;
19358;SDS011;9815;52.334;20.890;2023-05-07T09:13:36;4.47;;;2.30;;
19358;SDS011;9815;52.334;20.890;2023-05-07T09:16:09;4.73;;;2.20;;
19358;SDS011;9815;52.334;20.890;2023-05-07T09:18:43;4.17;;;2.83;;
19358;SDS011;9815;52.334;20.890;2023-05-07T09:21:15;6.73;;;3.03;;
19358;SDS011;9815;52.334;20.890;2023-05-07T09:23:45;4.03;;;2.57;;
19358;SDS011;9815;52.334;20.890;2023-05-07T09:26:15;6.33;;;2.60;;
19358;SDS011;9815;52.334;20.890;2023-05-07T09:28:43;3.43;;;2.60;;
19358;SDS011;9815;52.334;20.890;2023-05-07T09:31:13;4.47;;;2.47;;
19358;SDS011;9815;52.334;20.890;2023-05-07T09:33:44;6.90;;;2.30;;
19358;SDS011;9815;52.334;20.890;2023-05-07T09:36:13;3.17;;;2.30;;
19358;SDS011;9815;52.334;20.890;2023-05-07T09:38:41;3.93;;;2.40;;
19358;SDS011;9815;52.334;20.890;2023-05-07T09:41:10;5.90;;;2.27;;
19358;SDS011;9815;52.334;20.890;2023-05-07T09:43:53;3.90;;;2.30;;
19358;SDS011;9815;52.334;20.890;2023-05-07T09:46:27;6.33;;;2.00;;
19358;SDS011;9815;52.334;20.890;2023-05-07T09:49:03;4.17;;;2.53;;
19358;SDS011;9815;52.334;20.890;2023-05-07T09:51:38;3.30;;;1.80;;
19358;SDS011;9815;52.334;20.890;2023-05-07T09:54:11;2.70;;;2.17;;
19358;SDS011;9815;52.334;20.890;2023-05-07T09:56:42;2.57;;;2.00;;
19358;SDS011;9815;52.334;20.890;2023-05-07T09:59:12;2.40;;;2.13;;
19358;SDS011;9815;52.334;20.890;2023-05-07T10:01:44;2.90;;;1.80;;
19358;SDS011;9815;52.334;20.890;2023-05-07T10:04:14;3.73;;;1.80;;
19358;SDS011;9815;52.334;20.890;2023-05-07T10:06:44;5.70;;;2.10;;
19358;SDS011;9815;52.334;20.890;2023-05-07T10:09:14;2.87;;;2.00;;
19358;SDS011;9815;52.334;20.890;2023-05-07T10:11:42;4.57;;;1.97;;
19358;SDS011;9815;52.334;20.890;2023-05-07T10:14:11;3.73;;;2.27;;
19358;SDS011;9815;52.334;20.890;2023-05-07T10:16:42;3.07;;;1.90;;
19358;SDS011;9815;52.334;20.890;2023-05-07T10:19:16;3.20;;;1.90;;
19358;SDS011;9815;52.334;20.890;2023-05-07T10:21:51;2.77;;;2.00;;
19358;SDS011;9815;52.334;20.890;2023-05-07T10:24:25;6.00;;;2.10;;
19358;SDS011;9815;52.334;20.890;2023-05-07T10:26:57;5.13;;;2.13;;
19358;SDS011;9815;52.334;20.890;2023-05-07T10:29:30;4.73;;;1.90;;
19358;SDS011;9815;52.334;20.890;2023-05-07T10:32:10;4.40;;;2.23;;
19358;SDS011;9815;52.334;20.890;2023-05-07T10:34:56;2.97;;;2.20;;
19358;SDS011;9815;52.334;20.890;2023-05-07T10:37:27;2.77;;;1.73;;
19358;SDS011;9815;52.334;20.890;2023-05-07T10:39:56;5.30;;;2.50;;
19358;SDS011;9815;52.334;20.890;2023-05-07T10:42:26;2.73;;;1.80;;
19358;SDS011;9815;52.334;20.890;2023-05-07T10:44:55;2.37;;;1.80;;
19358;SDS011;9815;52.334;20.890;2023-05-07T10:47:28;1.87;;;1.60;;
19358;SDS011;9815;52.334;20.890;2023-05-07T10:56:25;3.30;;;1.80;;
19358;SDS011;9815;52.334;20.890;2023-05-07T10:59:29;4.13;;;1.90;;
19358;SDS011;9815;52.334;20.890;2023-05-07T11:02:12;2.10;;;1.50;;
19358;SDS011;9815;52.334;20.890;2023-05-07T11:08:01;2.67;;;2.20;;
19358;SDS011;9815;52.334;20.890;2023-05-07T11:10:47;3.03;;;1.83;;
19358;SDS011;9815;52.334;20.890;2023-05-07T11:13:43;11.50;;;4.93;;
19358;SDS011;9815;52.334;20.890;2023-05-07T11:16:21;23.47;;;10.27;;
19358;SDS011;9815;52.334;20.890;2023-05-07T11:18:58;6.37;;;2.50;;
19358;SDS011;9815;52.334;20.890;2023-05-07T11:21:34;1.97;;;1.43;;
19358;SDS011;9815;52.334;20.890;2023-05-07T11:24:12;3.70;;;1.90;;
19358;SDS011;9815;52.334;20.890;2023-05-07T11:26:49;7.13;;;1.90;;
19358;SDS011;9815;52.334;20.890;2023-05-07T11:29:20;2.27;;;1.60;;
19358;SDS011;9815;52.334;20.890;2023-05-07T11:31:54;3.57;;;1.63;;
19358;SDS011;9815;52.334;20.890;2023-05-07T11:34:28;3.97;;;1.70;;
19358;SDS011;9815;52.334;20.890;2023-05-07T11:36:58;2.83;;;1.80;;
19358;SDS011;9815;52.334;20.890;2023-05-07T11:40:04;2.50;;;1.73;;
19358;SDS011;9815;52.334;20.890;2023-05-07T11:42:35;3.13;;;1.70;;
19358;SDS011;9815;52.334;20.890;2023-05-07T11:45:04;3.17;;;1.90;;
19358;SDS011;9815;52.334;20.890;2023-05-07T11:47:33;4.30;;;1.97;;
19358;SDS011;9815;52.334;20.890;2023-05-07T11:50:03;3.60;;;2.20;;
19358;SDS011;9815;52.334;20.890;2023-05-07T11:52:32;4.00;;;2.43;;
19358;SDS011;9815;52.334;20.890;2023-05-07T11:55:01;5.53;;;3.00;;
19358;SDS011;9815;52.334;20.890;2023-05-07T11:57:32;2.87;;;2.40;;
19358;SDS011;9815;52.334;20.890;2023-05-07T12:00:01;3.13;;;1.80;;
19358;SDS011;9815;52.334;20.890;2023-05-07T12:02:41;2.20;;;1.80;;
19358;SDS011;9815;52.334;20.890;2023-05-07T12:05:09;2.13;;;1.87;;
19358;SDS011;9815;52.334;20.890;2023-05-07T12:07:37;4.03;;;1.97;;
19358;SDS011;9815;52.334;20.890;2023-05-07T12:10:06;3.13;;;1.70;;
19358;SDS011;9815;52.334;20.890;2023-05-07T12:12:39;3.03;;;1.80;;
19358;SDS011;9815;52.334;20.890;2023-05-07T12:15:08;2.63;;;1.47;;
19358;SDS011;9815;52.334;20.890;2023-05-07T12:17:38;4.10;;;1.80;;
19358;SDS011;9815;52.334;20.890;2023-05-07T12:20:07;5.27;;;1.70;;
19358;SDS011;9815;52.334;20.890;2023-05-07T12:22:36;3.03;;;1.80;;
19358;SDS011;9815;52.334;20.890;2023-05-07T12:25:05;2.87;;;1.50;;
19358;SDS011;9815;52.334;20.890;2023-05-07T12:27:36;4.77;;;1.90;;
19358;SDS011;9815;52.334;20.890;2023-05-07T12:30:08;5.83;;;2.20;;
19358;SDS011;9815;52.334;20.890;2023-05-07T12:32:37;3.83;;;1.80;;
19358;SDS011;9815;52.334;20.890;2023-05-07T12:35:06;2.33;;;1.60;;
19358;SDS011;9815;52.334;20.890;2023-05-07T12:37:35;5.27;;;2.87;;
19358;SDS011;9815;52.334;20.890;2023-05-07T12:40:04;2.87;;;2.00;;
19358;SDS011;9815;52.334;20.890;2023-05-07T12:42:35;4.03;;;2.10;;
19358;SDS011;9815;52.334;20.890;2023-05-07T12:45:11;3.87;;;2.10;;
19358;SDS011;9815;52.334;20.890;2023-05-07T12:47:43;6.60;;;2.90;;
19358;SDS011;9815;52.334;20.890;2023-05-07T12:50:12;4.83;;;2.73;;
19358;SDS011;9815;52.334;20.890;2023-05-07T12:52:42;3.17;;;1.70;;
19358;SDS011;9815;52.334;20.890;2023-05-07T12:55:12;7.03;;;2.60;;
19358;SDS011;9815;52.334;20.890;2023-05-07T12:57:42;5.07;;;2.80;;
19358;SDS011;9815;52.334;20.890;2023-05-07T13:00:14;5.37;;;2.63;;
19358;SDS011;9815;52.334;20.890;2023-05-07T13:02:43;3.67;;;2.40;;
19358;SDS011;9815;52.334;20.890;2023-05-07T13:05:12;3.90;;;2.30;;
19358;SDS011;9815;52.334;20.890;2023-05-07T13:07:40;5.10;;;2.43;;
19358;SDS011;9815;52.334;20.890;2023-05-07T13:10:19;3.97;;;2.40;;
19358;SDS011;9815;52.334;20.890;2023-05-07T13:12:47;2.63;;;1.87;;
19358;SDS011;9815;52.334;20.890;2023-05-07T13:15:17;3.43;;;2.00;;
19358;SDS011;9815;52.334;20.890;2023-05-07T13:17:45;4.10;;;1.83;;
19358;SDS011;9815;52.334;20.890;2023-05-07T13:20:13;3.73;;;1.90;;
19358;SDS011;9815;52.334;20.890;2023-05-07T13:22:41;2.57;;;1.70;;
19358;SDS011;9815;52.334;20.890;2023-05-07T13:25:10;2.63;;;1.60;;
19358;SDS011;9815;52.334;20.890;2023-05-07T13:27:38;1.80;;;1.43;;
19358;SDS011;9815;52.334;20.890;2023-05-07T13:30:07;1.87;;;1.40;;
19358;SDS011;9815;52.334;20.890;2023-05-07T13:32:36;3.47;;;1.87;;
19358;SDS011;9815;52.334;20.890;2023-05-07T13:35:05;1.77;;;1.40;;
19358;SDS011;9815;52.334;20.890;2023-05-07T13:37:34;4.47;;;1.87;;
19358;SDS011;9815;52.334;20.890;2023-05-07T13:40:02;2.13;;;1.70;;
19358;SDS011;9815;52.334;20.890;2023-05-07T13:42:32;6.17;;;2.93;;
19358;SDS011;9815;52.334;20.890;2023-05-07T13:45:00;2.43;;;1.93;;
19358;SDS011;9815;52.334;20.890;2023-05-07T13:47:30;4.53;;;2.30;;
19358;SDS011;9815;52.334;20.890;2023-05-07T13:49:59;2.97;;;1.57;;
19358;SDS011;9815;52.334;20.890;2023-05-07T13:52:27;3.73;;;2.13;;
19358;SDS011;9815;52.334;20.890;2023-05-07T13:54:56;4.20;;;2.63;;
19358;SDS011;9815;52.334;20.890;2023-05-07T13:57:25;2.50;;;1.77;;
19358;SDS011;9815;52.334;20.890;2023-05-07T13:59:53;4.33;;;1.70;;
19358;SDS011;9815;52.334;20.890;2023-05-07T14:02:21;2.10;;;1.60;;
19358;SDS011;9815;52.334;20.890;2023-05-07T14:04:49;3.20;;;1.60;;
19358;SDS011;9815;52.334;20.890;2023-05-07T14:07:19;1.90;;;1.40;;
19358;SDS011;9815;52.334;20.890;2023-05-07T14:09:47;2.10;;;1.30;;
19358;SDS011;9815;52.334;20.890;2023-05-07T14:12:15;3.33;;;1.30;;
19358;SDS011;9815;52.334;20.890;2023-05-07T14:14:43;4.00;;;1.57;;
19358;SDS011;9815;52.334;20.890;2023-05-07T14:17:11;2.17;;;1.50;;
19358;SDS011;9815;52.334;20.890;2023-05-07T14:19:39;1.83;;;1.30;;
19358;SDS011;9815;52.334;20.890;2023-05-07T14:22:07;3.40;;;2.13;;
19358;SDS011;9815;52.334;20.890;2023-05-07T14:24:37;3.63;;;2.10;;
19358;SDS011;9815;52.334;20.890;2023-05-07T14:27:06;2.70;;;1.40;;
19358;SDS011;9815;52.334;20.890;2023-05-07T14:29:34;4.40;;;1.80;;
19358;SDS011;9815;52.334;20.890;2023-05-07T14:32:02;2.77;;;1.77;;
19358;SDS011;9815;52.334;20.890;2023-05-07T14:34:30;2.43;;;1.43;;
19358;SDS011;9815;52.334;20.890;2023-05-07T14:36:59;3.27;;;1.70;;
19358;SDS011;9815;52.334;20.890;2023-05-07T14:39:27;3.50;;;1.40;;
19358;SDS011;9815;52.334;20.890;2023-05-07T14:41:57;1.90;;;1.47;;
19358;SDS011;9815;52.334;20.890;2023-05-07T14:44:25;2.23;;;1.53;;
19358;SDS011;9815;52.334;20.890;2023-05-07T14:46:53;2.10;;;1.23;;
19358;SDS011;9815;52.334;20.890;2023-05-07T14:49:21;2.13;;;1.40;;
19358;SDS011;9815;52.334;20.890;2023-05-07T14:51:49;1.87;;;1.17;;
19358;SDS011;9815;52.334;20.890;2023-05-07T14:54:18;3.17;;;1.30;;
19358;SDS011;9815;52.334;20.890;2023-05-07T14:56:46;5.00;;;1.30;;
19358;SDS011;9815;52.334;20.890;2023-05-07T14:59:15;1.80;;;1.47;;
19358;SDS011;9815;52.334;20.890;2023-05-07T15:01:47;3.50;;;1.30;;
19358;SDS011;9815;52.334;20.890;2023-05-07T15:04:15;4.20;;;1.83;;
19358;SDS011;9815;52.334;20.890;2023-05-07T15:06:43;2.17;;;1.57;;
19358;SDS011;9815;52.334;20.890;2023-05-07T15:09:12;4.87;;;1.50;;
19358;SDS011;9815;52.334;20.890;2023-05-07T15:11:40;3.70;;;1.50;;
19358;SDS011;9815;52.334;20.890;2023-05-07T15:14:08;1.90;;;1.43;;